HNL - Daniel K Inouye Intl

Pirep is a free, collaborative database of all public and private airports located within the United States. All pilots are welcome to contribute, edit, and improve any airport they have local knowledge about, no registration required.
Uploaded photos will be licensed under a CC BY-SA 4.0 license. Please only upload photos you have the rights to use.
Tags
Public
METAR / TAF
Edit Tags
Food
Camping
Lodging
Car Rental
Bicycles
Swimming
Golfing
Fishing
Hot Springs
Museum
Flying Clubs
Airpark
Upcoming Events
No upcoming events. Is anything happening here soon?
*
*
*

Where exactly on/near the airport is this event taking place?

Is there a webpage with more information for this event?

Who should be contacted for more information?

What is this event all about?

Repeat every
Description
Transient Parking
Last updated: 2023-04-18 08:23:28 HST
Fuel Location
Last updated: 2023-04-18 08:23:28 HST
Landing & Tie-down Fees
Crew Car Availability
Flying Clubs
WiFi Access
Airport Statistics
Location: Honolulu, HI
Elevation: 12ft
Sectional: Hawaiian Islands
Activation date: Feb 1938
Fuel: 100, A, A1+ (prices)
Runway 08L/26R: 12,312ft
Runway 08R/26L: 12,000ft
Runway 04R/22L: 9,002ft
Runway 04L/22R: 6,955ft
Runway 08W/26W: 5,090ft
Runway 04W/22W: 3,000ft
Access: Open to the public
Current Weather — VFR
  • Weather data is strictly informational and not for flight planning purposes.
  • METAR
    2024-06-17 01:53:00 HST
    Ceiling Wind Temperature Dewpoint Weather Visbility
    Sky clear 60° @ 9kt 75°F 68°F Light rain 10SM
    Clouds: Few @ 2,000ft, Scattered @ 3,300ft, Scattered @ 5,000ft
    Raw: PHNL 171153Z 06009KT 10SM -RA FEW020 SCT033 SCT050 24/20 A3007 RMK AO2 RAB50 SLP181 P0000 60000 T02390200 10250 20233 58010
  • TAF
    2024-06-17 02:00:00 HST – 2024-06-17 10:00:00 HST
    Ceiling Wind Weather Visbility
    Sky clear 60° @ 6kt Showers in vicinity 6SM
    Clouds: Few @ 2,500ft, Scattered @ 3,500ft
    Raw: PHNL 171120Z 1712/1818 06006KT P6SM VCSH FEW025 SCT035 FM172000 07016G26KT P6SM FEW030 SCT050 FM180900 04010KT P6SM VCSH FEW025 SCT045
  • TAF
    2024-06-17 10:00:00 HST – 2024-06-17 23:00:00 HST
    Ceiling Wind Weather Visbility
    Sky clear 70° @ 16kt, gusts 26kt N/A 6SM
    Clouds: Few @ 3,000ft, Scattered @ 5,000ft
    Raw: PHNL 171120Z 1712/1818 06006KT P6SM VCSH FEW025 SCT035 FM172000 07016G26KT P6SM FEW030 SCT050 FM180900 04010KT P6SM VCSH FEW025 SCT045
  • TAF
    2024-06-17 23:00:00 HST – 2024-06-18 08:00:00 HST
    Ceiling Wind Weather Visbility
    Sky clear 40° @ 10kt Showers in vicinity 6SM
    Clouds: Few @ 2,500ft, Scattered @ 4,500ft
    Raw: PHNL 171120Z 1712/1818 06006KT P6SM VCSH FEW025 SCT035 FM172000 07016G26KT P6SM FEW030 SCT050 FM180900 04010KT P6SM VCSH FEW025 SCT045
Click/tap to add an annotation marker to the map
Airport Webcams
No webcams added yet.
Direct links to live image URLs will be displayed inline on this page. URLs to separate webpages will be linked to.
URL:
Direct links to live image URLs will be displayed inline on this page. URLs to separate webpages will be linked to.
URL:
Remarks
  • (joint base pearl harbor-hickam)
  • Rmn at least 1 mile off shore of waikiki diamond head koko head & ewa beach. arr rwy 08l; fly ils apch proc or a close-in base leg rmng over cntr of pearl harbor chnl. arr 26l/r; rnm at tfc pat alts as long as psbl bfr bgng dscnt for lndg.
  • Ppr fm amgr for transporation of class a or b explos in and/or out of hnl.
  • Due to non-visibility twr una to dtrm if the flwg areas are clear of obstns and/or tfc: ptns of twy j btn twy b & rwy 08r; ptns of inter-island acft prkg ramp.
  • Due to location of atct, controllers unable to determine whether acft are on correct final apch to rys 04l-04r and 22l-22r.
Comments
  • This comment was flagged as outdated on .

    This airport needs to be 3 airports.

    Created about 1 year ago (2023-04-18 18:27:00 UTC)
    Helpful count: 0
Leave a comment What was your experience like at this airport?